Time;durP1;ratioP1;P1;durP2;ratioP2;P2;SDS_P1;SDS_P2;PMS_P1;PMS_P2;Temp;Humidity;BMP_temperature;BMP_pressure;BME280_temperature;BME280_humidity;BME280_pressure;Samples;Min_cycle;Max_cycle;Signal;HPM_P1;HPM_P2
2022/03/18 04:50:49;;;;;;;34.75;22.55;;;7.50;99.90;;;;;;5072274;23;20538;-84
2022/03/18 04:53:16;;;;;;;39.13;22.88;;;7.50;99.90;;;;;;4974703;28;20051;-84
2022/03/18 04:55:43;;;;;;;34.42;22.45;;;7.50;99.90;;;;;;4974095;28;20053;-82
2022/03/18 04:58:10;;;;;;;35.17;22.08;;;7.50;99.90;;;;;;4972837;28;20430;-83
2022/03/18 05:00:37;;;;;;;35.60;21.42;;;7.50;99.90;;;;;;4974903;28;20154;-83
2022/03/18 05:03:05;;;;;;;37.20;22.10;;;7.50;99.90;;;;;;4975046;28;20125;-84
2022/03/18 05:05:32;;;;;;;32.63;19.90;;;7.60;99.90;;;;;;4957989;28;20129;-85
2022/03/18 05:08:00;;;;;;;38.35;22.95;;;7.60;99.90;;;;;;4974726;28;20141;-83
2022/03/18 05:10:28;;;;;;;38.03;22.63;;;7.50;99.90;;;;;;4974406;28;20141;-85
2022/03/18 05:12:56;;;;;;;36.38;22.65;;;7.50;99.90;;;;;;4975069;28;20053;-82
2022/03/18 05:15:24;;;;;;;36.28;22.98;;;7.50;99.90;;;;;;4957284;28;20053;-81
2022/03/18 05:17:54;;;;;;;33.47;21.33;;;7.50;99.90;;;;;;4974514;28;20134;-84
2022/03/18 05:20:21;;;;;;;36.13;22.10;;;7.60;99.90;;;;;;4972537;28;20058;-85
2022/03/18 05:22:51;;;;;;;33.78;21.27;;;7.50;99.90;;;;;;4975009;28;20377;-85
2022/03/18 05:25:21;;;;;;;36.45;22.15;;;7.50;99.90;;;;;;4973654;28;20042;-84
2022/03/18 05:27:49;;;;;;;35.78;22.05;;;7.50;99.90;;;;;;4973171;28;20065;-84
2022/03/18 05:30:17;;;;;;;35.80;22.10;;;7.50;99.90;;;;;;4972792;28;20054;-86
2022/03/18 05:32:44;;;;;;;34.28;20.83;;;7.50;99.90;;;;;;4973124;28;20109;-85
2022/03/18 05:35:12;;;;;;;34.30;20.98;;;7.60;99.90;;;;;;4975240;28;20479;-84
2022/03/18 05:37:39;;;;;;;35.05;21.88;;;7.60;99.90;;;;;;4975051;28;20050;-85
2022/03/18 05:40:10;;;;;;;33.90;20.65;;;7.60;99.90;;;;;;4957909;28;20051;-84
2022/03/18 05:42:39;;;;;;;35.20;21.35;;;7.50;99.90;;;;;;4958454;28;20488;-86
2022/03/18 05:45:07;;;;;;;36.55;22.08;;;7.50;99.90;;;;;;4975156;28;20576;-85
2022/03/18 05:47:34;;;;;;;34.05;21.25;;;7.50;99.90;;;;;;4974927;28;20157;-85
2022/03/18 05:50:06;;;;;;;32.53;19.80;;;7.50;99.90;;;;;;4958033;28;20053;-86
2022/03/18 05:52:34;;;;;;;32.63;20.48;;;7.60;99.90;;;;;;4957656;28;20051;-87
2022/03/18 05:55:01;;;;;;;35.33;21.90;;;7.60;99.90;;;;;;4975041;28;20118;-85
2022/03/18 05:57:28;;;;;;;36.45;21.98;;;7.50;99.90;;;;;;4974468;28;20047;-85
2022/03/18 05:59:58;;;;;;;39.17;23.52;;;7.50;99.90;;;;;;4957735;28;20055;-84
2022/03/18 06:02:26;;;;;;;36.05;21.88;;;7.50;99.90;;;;;;4975122;28;20142;-85
2022/03/18 06:04:53;;;;;;;36.58;20.92;;;7.50;99.90;;;;;;4974750;28;20484;-85
2022/03/18 06:07:21;;;;;;;41.20;24.50;;;7.50;99.90;;;;;;4957738;28;20522;-85
2022/03/18 06:12:32;;;;;;;40.05;23.48;;;7.50;99.90;;;;;;4986211;28;20082;-85
2022/03/18 06:15:01;;;;;;;35.90;23.13;;;7.50;99.90;;;;;;4974930;28;20470;-86
2022/03/18 06:17:28;;;;;;;37.60;22.13;;;7.50;99.90;;;;;;4974819;28;20129;-86
2022/03/18 06:19:55;;;;;;;38.28;22.58;;;7.50;99.90;;;;;;4974771;28;20134;-85
2022/03/18 06:22:22;;;;;;;36.75;22.02;;;7.50;99.90;;;;;;4957390;28;20515;-85
2022/03/18 06:24:49;;;;;;;37.38;23.17;;;7.50;99.90;;;;;;4974965;28;20138;-85
2022/03/18 06:27:17;;;;;;;37.22;22.50;;;7.50;99.90;;;;;;4957185;28;20138;-84
2022/03/18 06:29:44;;;;;;;37.05;22.25;;;7.60;99.90;;;;;;4974539;28;20129;-84
2022/03/18 06:32:12;;;;;;;36.35;23.13;;;7.60;99.90;;;;;;4974339;28;20077;-87
2022/03/18 06:34:39;;;;;;;39.03;24.27;;;7.50;99.90;;;;;;4974482;28;20133;-85
2022/03/18 06:37:07;;;;;;;37.78;23.55;;;7.50;99.90;;;;;;4974129;28;20207;-85
2022/03/18 06:39:34;;;;;;;36.97;23.85;;;7.50;99.90;;;;;;4974597;28;20078;-84
2022/03/18 06:42:02;;;;;;;39.03;22.95;;;7.60;99.90;;;;;;4974355;28;20047;-86
2022/03/18 06:44:29;;;;;;;37.05;21.60;;;7.60;99.90;;;;;;4974345;28;20134;-85
2022/03/18 06:46:57;;;;;;;38.50;23.38;;;7.70;99.90;;;;;;4974644;28;20133;-84
2022/03/18 06:49:25;;;;;;;38.78;23.52;;;7.60;99.90;;;;;;4974275;28;20134;-86
2022/03/18 06:51:52;;;;;;;41.75;24.80;;;7.60;99.90;;;;;;4974608;28;20053;-84
2022/03/18 06:54:19;;;;;;;37.65;22.63;;;7.60;99.90;;;;;;4957005;28;20189;-85
2022/03/18 06:56:46;;;;;;;42.60;24.35;;;7.60;99.90;;;;;;4974467;28;20506;-85
2022/03/18 06:59:14;;;;;;;41.10;25.83;;;7.60;99.90;;;;;;4974382;28;20145;-85
2022/03/18 07:01:41;;;;;;;41.30;24.58;;;7.60;99.90;;;;;;4974410;28;20047;-87
2022/03/18 07:04:08;;;;;;;42.08;26.25;;;7.70;99.90;;;;;;4976649;28;20114;-85
2022/03/18 07:06:36;;;;;;;41.90;26.33;;;7.60;99.90;;;;;;4977927;28;20119;-86
2022/03/18 07:09:04;;;;;;;45.05;26.45;;;7.60;99.90;;;;;;4976810;28;20051;-85
2022/03/18 07:11:31;;;;;;;44.33;26.27;;;7.60;99.90;;;;;;4977578;28;20138;-86
2022/03/18 07:13:58;;;;;;;39.88;24.63;;;7.60;99.90;;;;;;4977207;28;20142;-85
2022/03/18 07:19:09;;;;;;;;;;;7.60;99.90;;;;;;4963737;28;20062;-87
2022/03/18 07:21:38;;;;;;;45.88;26.02;;;7.60;99.90;;;;;;4977520;28;20020;-86
2022/03/18 07:24:06;;;;;;;45.05;26.90;;;7.70;99.90;;;;;;4977272;28;20057;-85
2022/03/18 07:26:33;;;;;;;44.78;26.23;;;7.70;99.90;;;;;;4977406;28;20145;-86
2022/03/18 07:29:04;;;;;;;46.78;28.80;;;7.80;99.90;;;;;;4960513;28;20587;-86
2022/03/18 07:31:31;;;;;;;46.55;28.48;;;7.80;99.90;;;;;;4977281;28;20050;-86
2022/03/18 07:33:58;;;;;;;46.55;27.10;;;7.80;99.90;;;;;;4977325;28;20086;-85
2022/03/18 07:36:25;;;;;;;46.05;27.90;;;7.90;99.90;;;;;;4977092;28;20432;-86
2022/03/18 07:38:53;;;;;;;46.70;27.65;;;7.90;99.90;;;;;;4977151;28;20567;-84
2022/03/18 07:41:21;;;;;;;45.65;27.05;;;8.00;99.90;;;;;;4977094;28;20078;-86
2022/03/18 07:43:48;;;;;;;51.10;29.73;;;7.90;99.90;;;;;;4977137;28;20052;-83
2022/03/18 07:46:16;;;;;;;45.53;28.30;;;8.00;99.90;;;;;;4977366;28;20453;-88
2022/03/18 07:48:44;;;;;;;46.25;27.65;;;7.90;99.90;;;;;;4977432;28;20051;-88
2022/03/18 07:51:12;;;;;;;46.60;27.58;;;8.00;99.90;;;;;;4976706;28;20058;-87
2022/03/18 07:53:39;;;;;;;46.03;28.13;;;8.10;99.90;;;;;;4978287;28;20570;-86
2022/03/18 07:56:07;;;;;;;49.42;29.52;;;8.00;99.90;;;;;;4979165;28;20142;-85
2022/03/18 07:58:35;;;;;;;45.60;27.80;;;8.00;99.90;;;;;;4979131;28;20142;-87
2022/03/18 08:01:02;;;;;;;48.08;29.75;;;8.00;99.90;;;;;;4961966;28;20408;-84
2022/03/18 08:03:29;;;;;;;47.60;29.20;;;8.00;99.90;;;;;;4979089;28;20185;-84
2022/03/18 08:05:56;;;;;;;45.17;27.80;;;8.00;99.90;;;;;;4979130;28;20074;-85
2022/03/18 08:08:23;;;;;;;51.38;29.30;;;8.10;99.90;;;;;;4979006;28;20568;-85
2022/03/18 08:10:52;;;;;;;47.97;28.27;;;8.10;99.90;;;;;;4962575;28;20499;-85
2022/03/18 08:13:21;;;;;;;47.38;29.00;;;8.10;99.90;;;;;;4979034;28;20061;-86
2022/03/18 08:15:48;;;;;;;44.17;27.15;;;8.10;99.90;;;;;;4977021;28;20169;-86
2022/03/18 08:18:16;;;;;;;44.20;27.85;;;8.10;99.90;;;;;;4976439;28;20142;-86
2022/03/18 08:20:44;;;;;;;44.10;27.08;;;8.20;99.90;;;;;;4976217;28;20058;-87
2022/03/18 08:23:12;;;;;;;44.65;27.40;;;8.20;99.90;;;;;;4976697;28;20054;-85
2022/03/18 08:25:39;;;;;;;44.10;26.23;;;8.30;99.90;;;;;;4976126;28;20082;-86
2022/03/18 08:28:07;;;;;;;43.13;27.55;;;8.50;99.90;;;;;;4976775;28;20081;-86
2022/03/18 08:30:35;;;;;;;46.35;27.92;;;8.40;99.90;;;;;;4976905;28;20050;-85
2022/03/18 08:33:03;;;;;;;41.42;27.00;;;8.50;99.90;;;;;;4976150;28;20135;-85
2022/03/18 08:35:31;;;;;;;47.30;28.48;;;8.50;99.90;;;;;;4976418;28;20133;-87
2022/03/18 08:37:58;;;;;;;46.67;28.23;;;8.40;99.90;;;;;;4959135;28;20052;-87
2022/03/18 08:40:26;;;;;;;43.60;27.92;;;8.50;99.90;;;;;;4976199;28;20089;-82
2022/03/18 08:42:54;;;;;;;44.63;27.65;;;8.50;99.90;;;;;;4958491;28;20055;-81
2022/03/18 08:45:21;;;;;;;46.65;27.92;;;8.50;99.90;;;;;;4975981;28;20125;-83
2022/03/18 08:47:51;;;;;;;45.58;27.77;;;8.40;99.90;;;;;;4975731;28;20220;-84
2022/03/18 08:50:20;;;;;;;42.00;27.45;;;8.40;99.90;;;;;;4975753;28;20440;-84
2022/03/18 08:52:47;;;;;;;46.03;27.23;;;8.50;99.90;;;;;;4976037;28;20055;-84
2022/03/18 08:55:14;;;;;;;45.85;28.33;;;8.70;99.90;;;;;;4975522;28;20125;-84
2022/03/18 08:57:41;;;;;;;43.42;27.58;;;8.70;99.90;;;;;;4975737;28;20141;-84
2022/03/18 09:00:13;;;;;;;42.65;26.05;;;8.70;99.90;;;;;;4975457;28;20089;-84
2022/03/18 09:02:40;;;;;;;44.17;27.45;;;8.80;99.90;;;;;;4975964;28;20066;-85
2022/03/18 09:05:10;;;;;;;43.55;27.45;;;8.90;99.90;;;;;;4958232;28;20138;-83
2022/03/18 09:07:39;;;;;;;41.55;26.05;;;8.80;99.90;;;;;;4958509;28;20133;-84
2022/03/18 09:10:08;;;;;;;41.20;25.92;;;8.90;99.90;;;;;;4975262;28;20589;-84
2022/03/18 09:12:35;;;;;;;41.95;26.60;;;9.00;99.90;;;;;;4975021;28;20129;-84
2022/03/18 09:15:03;;;;;;;46.85;28.33;;;9.00;99.90;;;;;;4975076;28;20090;-82
2022/03/18 09:17:31;;;;;;;42.85;27.90;;;8.90;99.90;;;;;;4958244;28;20105;-83
2022/03/18 09:19:58;;;;;;;44.28;28.77;;;8.80;99.90;;;;;;4962750;28;20483;-84
2022/03/18 09:22:30;;;;;;;41.83;27.17;;;8.70;99.90;;;;;;4936593;28;20143;-84
2022/03/18 09:24:57;;;;;;;46.53;29.33;;;8.80;99.90;;;;;;4953676;29;20051;-82
2022/03/18 09:27:24;;;;;;;47.00;28.38;;;8.80;99.90;;;;;;4953409;29;20083;-83
2022/03/18 09:29:52;;;;;;;46.05;27.45;;;8.80;99.90;;;;;;4953397;29;20143;-84
2022/03/18 09:32:19;;;;;;;40.25;25.08;;;8.90;99.90;;;;;;4952844;28;20485;-83
2022/03/18 09:34:46;;;;;;;37.58;24.73;;;9.10;99.90;;;;;;4953962;29;20145;-84
2022/03/18 09:37:13;;;;;;;43.40;27.23;;;9.20;99.90;;;;;;4952022;28;20142;-82
2022/03/18 09:39:41;;;;;;;42.25;26.50;;;9.10;99.90;;;;;;4953796;28;20079;-84
2022/03/18 09:42:08;;;;;;;41.75;26.73;;;9.20;99.90;;;;;;4953560;29;20126;-84
2022/03/18 09:44:37;;;;;;;40.75;25.75;;;9.10;99.90;;;;;;4953397;29;20050;-85
2022/03/18 09:47:06;;;;;;;40.75;25.90;;;9.20;99.90;;;;;;4953469;28;20055;-85
2022/03/18 09:49:35;;;;;;;40.80;26.20;;;9.20;99.90;;;;;;4953026;28;20678;-85
2022/03/18 09:52:03;;;;;;;39.08;24.00;;;9.20;99.90;;;;;;4953940;28;20055;-84
2022/03/18 09:54:34;;;;;;;41.63;26.38;;;9.30;99.90;;;;;;4954718;29;20465;-85
2022/03/18 09:57:04;;;;;;;39.85;25.73;;;9.40;99.90;;;;;;4956517;29;20055;-87
2022/03/18 09:59:32;;;;;;;39.50;25.63;;;9.30;99.90;;;;;;4937746;29;20058;-85
2022/03/18 10:02:28;;;;;;;41.53;25.90;;;9.30;99.90;;;;;;4936189;29;20055;-83
2022/03/18 10:04:59;;;;;;;38.10;24.42;;;9.30;99.90;;;;;;4954569;29;20051;-83
2022/03/18 10:07:27;;;;;;;40.00;25.55;;;9.40;99.90;;;;;;4953283;29;20130;-81
2022/03/18 10:10:10;;;;;;;38.28;25.33;;;9.50;99.90;;;;;;4936330;29;20099;-84
2022/03/18 10:12:41;;;;;;;36.30;23.88;;;9.50;99.90;;;;;;4953540;28;20449;-83
2022/03/18 10:15:15;;;;;;;36.60;24.45;;;9.70;99.90;;;;;;4953219;28;20047;-84
2022/03/18 10:17:46;;;;;;;36.67;23.55;;;9.80;99.50;;;;;;4953419;29;20043;-86
2022/03/18 10:20:35;;;;;;;34.85;23.52;;;9.80;99.40;;;;;;4952731;29;20061;-85
2022/03/18 10:23:19;;;;;;;37.83;24.70;;;10.00;99.60;;;;;;4931140;29;20051;-86
2022/03/18 10:25:51;;;;;;;35.20;23.13;;;9.90;99.90;;;;;;4952796;29;20078;-84
2022/03/18 10:28:37;;;;;;;35.47;24.85;;;9.80;99.80;;;;;;4951643;29;20043;-83
2022/03/18 10:31:14;;;;;;;36.22;24.10;;;9.80;99.90;;;;;;4952715;28;20075;-83
2022/03/18 10:39:23;;;;;;;36.15;23.77;;;9.90;98.90;;;;;;4938471;29;20059;-84
2022/03/18 10:41:51;;;;;;;36.08;23.85;;;9.80;98.90;;;;;;4953672;28;20508;-84
2022/03/18 10:44:19;;;;;;;35.22;22.73;;;9.90;98.80;;;;;;4953115;28;20062;-85
2022/03/18 10:46:48;;;;;;;35.50;22.23;;;10.00;98.70;;;;;;4956937;29;20141;-83
2022/03/18 10:49:16;;;;;;;31.65;20.55;;;10.10;98.50;;;;;;4957569;29;20063;-84
2022/03/18 10:51:44;;;;;;;32.65;21.05;;;10.20;98.70;;;;;;4957197;29;20055;-84
2022/03/18 10:54:11;;;;;;;32.58;20.75;;;10.40;98.50;;;;;;4956661;28;20061;-84
2022/03/18 10:56:57;;;;;;;35.33;22.73;;;10.50;98.80;;;;;;4939429;28;20055;-85
2022/03/18 10:59:27;;;;;;;35.47;23.08;;;10.30;98.40;;;;;;4964053;29;20075;-82
2022/03/18 11:01:56;;;;;;;34.85;23.65;;;10.20;97.90;;;;;;4965463;28;20485;-84
2022/03/18 11:04:24;;;;;;;35.85;22.58;;;10.10;98.20;;;;;;4956164;28;20501;-86
2022/03/18 11:12:29;;;;;;;32.60;21.80;;;10.30;97.80;;;;;;4977503;28;20062;-85
2022/03/18 11:14:58;;;;;;;32.05;21.30;;;10.30;97.80;;;;;;4958856;28;20055;-87
2022/03/18 11:17:26;;;;;;;31.98;21.65;;;10.40;97.50;;;;;;4975989;28;20142;-86
2022/03/18 11:19:54;;;;;;;29.92;20.77;;;10.40;97.30;;;;;;4975868;28;20588;-85
2022/03/18 11:22:22;;;;;;;34.28;22.50;;;10.60;97.00;;;;;;4975432;28;20130;-84
2022/03/18 11:24:52;;;;;;;27.55;18.35;;;10.80;96.90;;;;;;4976336;28;20061;-86
2022/03/18 11:27:19;;;;;;;33.63;21.75;;;11.00;96.90;;;;;;4975426;28;20133;-86
2022/03/18 11:29:46;;;;;;;31.65;21.27;;;10.80;95.70;;;;;;4959338;28;20059;-85
2022/03/18 11:32:24;;;;;;;32.20;22.08;;;10.90;95.80;;;;;;4975625;28;20142;-85
2022/03/18 11:34:56;;;;;;;34.20;23.00;;;11.00;95.40;;;;;;4975972;28;20050;-86
2022/03/18 11:37:25;;;;;;;29.95;21.30;;;11.00;95.20;;;;;;4980165;28;20114;-85
2022/03/18 11:39:52;;;;;;;28.58;20.63;;;11.00;95.80;;;;;;4978191;28;20054;-86
2022/03/18 11:42:21;;;;;;;35.00;22.42;;;11.00;95.80;;;;;;4987445;28;20050;-85
2022/03/18 11:44:53;;;;;;;32.67;21.83;;;11.10;94.90;;;;;;4985332;28;20086;-84
2022/03/18 11:47:44;;;;;;;29.25;20.23;;;11.20;95.10;;;;;;4958785;28;20082;-85
2022/03/18 11:50:45;;;;;;;31.90;21.13;;;11.30;94.70;;;;;;4971213;28;20113;-86
2022/03/18 11:53:47;;;;;;;31.00;21.40;;;11.10;94.20;;;;;;4973897;28;20054;-85
2022/03/18 11:56:14;;;;;;;28.60;20.25;;;11.40;93.20;;;;;;4974836;28;20416;-85
2022/03/18 11:58:42;;;;;;;30.00;20.50;;;11.40;93.60;;;;;;4975022;28;20050;-85
2022/03/18 12:01:42;;;;;;;29.50;20.88;;;11.60;93.60;;;;;;4975282;28;20089;-86
2022/03/18 12:04:40;;;;;;;28.35;19.92;;;11.60;92.40;;;;;;4981125;28;20142;-84
2022/03/18 12:07:22;;;;;;;31.67;20.85;;;11.80;92.60;;;;;;4957850;28;20536;-84
2022/03/18 12:09:56;;;;;;;29.73;20.05;;;11.60;93.20;;;;;;4976241;28;20093;-84
2022/03/18 12:12:26;;;;;;;30.40;20.30;;;11.80;93.30;;;;;;4972127;28;20059;-84
2022/03/18 12:14:55;;;;;;;27.70;18.40;;;12.00;92.30;;;;;;4973928;28;20496;-84
2022/03/18 12:17:23;;;;;;;28.88;20.60;;;12.30;91.80;;;;;;4975051;28;20042;-86
2022/03/18 12:19:54;;;;;;;32.05;21.02;;;12.40;91.20;;;;;;4976222;28;20113;-86
2022/03/18 12:22:23;;;;;;;30.08;20.45;;;12.40;91.40;;;;;;4978573;28;20081;-85
2022/03/18 12:24:54;;;;;;;29.83;19.83;;;12.40;89.30;;;;;;4986638;28;20053;-84
2022/03/18 12:27:23;;;;;;;29.45;19.92;;;12.20;89.30;;;;;;4982089;28;20050;-85
2022/03/18 12:29:51;;;;;;;27.95;19.52;;;12.40;90.10;;;;;;4976915;28;20081;-86
2022/03/18 12:32:19;;;;;;;29.45;20.15;;;12.70;89.50;;;;;;4988140;28;20050;-85
2022/03/18 12:34:48;;;;;;;29.13;19.80;;;12.60;89.00;;;;;;4985336;28;20123;-86
2022/03/18 12:37:21;;;;;;;26.77;19.05;;;12.70;89.30;;;;;;4987450;28;20169;-84
2022/03/18 12:40:00;;;;;;;28.45;20.13;;;12.60;87.80;;;;;;4992148;28;20072;-85
2022/03/18 12:42:28;;;;;;;31.13;20.85;;;12.50;89.00;;;;;;4986166;28;20046;-86
2022/03/18 12:44:59;;;;;;;28.77;20.40;;;12.20;90.00;;;;;;4978233;28;20117;-84
2022/03/18 12:47:30;;;;;;;28.38;20.40;;;12.60;88.90;;;;;;4959453;28;20065;-84
2022/03/18 12:49:58;;;;;;;29.52;20.42;;;12.50;88.10;;;;;;4982642;28;20055;-84
2022/03/18 12:52:26;;;;;;;29.55;19.55;;;12.60;88.60;;;;;;4982693;28;20047;-85
2022/03/18 12:55:06;;;;;;;28.35;19.45;;;12.70;87.70;;;;;;4984481;28;20523;-84
2022/03/18 12:57:35;;;;;;;31.50;20.83;;;12.60;86.30;;;;;;4982748;28;20100;-85
2022/03/18 13:00:03;;;;;;;27.45;19.35;;;12.80;87.60;;;;;;4985747;28;20057;-83
2022/03/18 13:02:30;;;;;;;29.30;20.40;;;12.80;85.60;;;;;;4987584;28;20074;-87
2022/03/18 13:04:58;;;;;;;28.90;20.17;;;12.80;85.30;;;;;;4987609;28;20069;-86
2022/03/18 13:07:28;;;;;;;28.95;19.48;;;12.80;86.00;;;;;;4968963;28;20050;-86
2022/03/18 13:09:56;;;;;;;28.00;18.80;;;12.70;85.50;;;;;;4967621;28;20061;-85
2022/03/18 13:12:27;;;;;;;26.77;18.77;;;13.00;86.30;;;;;;4972071;28;20425;-86
2022/03/18 13:14:55;;;;;;;26.90;18.60;;;13.00;85.80;;;;;;4982686;28;20188;-85
2022/03/18 13:17:23;;;;;;;28.42;19.88;;;12.80;86.20;;;;;;4964380;28;20053;-85
2022/03/18 13:19:53;;;;;;;28.45;20.55;;;12.40;87.50;;;;;;4978213;28;20058;-84
2022/03/18 13:22:22;;;;;;;28.88;19.23;;;12.20;88.50;;;;;;4958999;28;20131;-83
2022/03/18 13:24:54;;;;;;;29.25;19.23;;;12.10;88.90;;;;;;4974129;28;20473;-84
2022/03/18 13:27:23;;;;;;;27.55;19.33;;;12.30;89.40;;;;;;4974557;28;20150;-84
2022/03/18 13:32:54;;;;;;;29.15;20.48;;;12.60;87.90;;;;;;4974540;28;20117;-83
2022/03/18 13:35:23;;;;;;;29.23;20.10;;;12.50;88.80;;;;;;4954607;28;20145;-80
2022/03/18 13:38:11;;;;;;;28.15;19.63;;;12.80;88.30;;;;;;4970033;28;20134;-82
2022/03/18 13:40:44;;;;;;;28.02;19.98;;;13.10;86.30;;;;;;4971017;28;20134;-79
2022/03/18 13:43:11;;;;;;;26.45;18.08;;;13.10;85.70;;;;;;4968937;28;20057;-83
2022/03/18 13:45:39;;;;;;;27.67;19.00;;;13.70;83.70;;;;;;4945879;29;20054;-82
2022/03/18 13:48:07;;;;;;;27.60;18.15;;;13.80;81.70;;;;;;4964589;28;20409;-80
2022/03/18 13:50:44;;;;;;;28.60;18.42;;;14.00;80.60;;;;;;4972151;28;20476;-84
2022/03/18 13:53:23;;;;;;;25.23;16.83;;;14.00;80.80;;;;;;4973133;28;20530;-82
2022/03/18 13:55:53;;;;;;;28.00;18.77;;;14.40;77.70;;;;;;4971939;28;20137;-81
2022/03/18 13:58:31;;;;;;;26.00;17.88;;;14.00;77.70;;;;;;4972354;28;20051;-84
2022/03/18 14:01:09;;;;;;;26.48;18.95;;;13.80;79.70;;;;;;4973727;28;20061;-83
2022/03/18 14:03:38;;;;;;;27.73;18.90;;;14.10;78.80;;;;;;4973762;28;20053;-85
2022/03/18 14:06:06;;;;;;;25.45;17.23;;;14.20;76.10;;;;;;4964209;28;20106;-84
2022/03/18 14:08:39;;;;;;;24.48;17.55;;;14.20;77.00;;;;;;4979671;28;20085;-85
2022/03/18 14:13:50;;;;;;;27.23;19.95;;;14.20;74.20;;;;;;4972284;28;20087;-85
2022/03/18 14:16:17;;;;;;;26.40;18.20;;;13.80;75.10;;;;;;4983780;28;20111;-84
2022/03/18 14:18:45;;;;;;;22.45;16.02;;;13.90;76.00;;;;;;4979866;28;20137;-83
2022/03/18 14:21:12;;;;;;;22.95;17.33;;;14.00;76.20;;;;;;4976545;28;20054;-85
2022/03/18 14:23:46;;;;;;;24.35;17.30;;;13.80;75.50;;;;;;4959724;28;20083;-85
2022/03/18 14:26:15;;;;;;;22.70;16.20;;;14.40;74.60;;;;;;4977130;28;20054;-85
2022/03/18 14:28:48;;;;;;;24.65;17.83;;;14.80;73.70;;;;;;4977010;28;20801;-85
2022/03/18 14:31:15;;;;;;;27.15;19.23;;;14.30;74.40;;;;;;4987255;28;20051;-86
2022/03/18 14:33:42;;;;;;;25.65;17.48;;;13.70;75.80;;;;;;4985267;28;20051;-86
2022/03/18 14:36:09;;;;;;;24.02;17.35;;;13.90;76.60;;;;;;4984314;28;20432;-86
2022/03/18 14:38:37;;;;;;;25.60;18.33;;;14.20;76.50;;;;;;4985164;28;20169;-85
2022/03/18 14:41:04;;;;;;;22.38;16.15;;;13.70;76.00;;;;;;4981926;28;20133;-85
2022/03/18 14:43:33;;;;;;;25.73;18.38;;;13.80;77.20;;;;;;4978913;28;20085;-84
2022/03/18 14:46:00;;;;;;;25.42;17.90;;;13.90;75.90;;;;;;4976161;28;20099;-85
2022/03/18 14:48:27;;;;;;;25.05;17.85;;;13.70;76.30;;;;;;4976115;28;20078;-86
2022/03/18 14:50:54;;;;;;;26.52;18.35;;;14.00;75.80;;;;;;4975668;28;20059;-86
2022/03/18 14:53:21;;;;;;;24.23;17.30;;;13.60;75.70;;;;;;4977627;28;20078;-85
2022/03/18 14:58:35;;;;;;;21.42;15.68;;;13.80;76.20;;;;;;4985353;28;20053;-83
2022/03/18 15:01:03;;;;;;;23.13;16.70;;;14.10;74.70;;;;;;4971020;28;20409;-85
2022/03/18 15:03:30;;;;;;;22.05;16.58;;;13.80;74.60;;;;;;4988028;28;20077;-85
2022/03/18 15:05:58;;;;;;;22.38;16.77;;;13.80;75.20;;;;;;4984222;28;20054;-85
2022/03/18 15:08:25;;;;;;;22.27;15.57;;;13.60;74.40;;;;;;4967061;28;20054;-85
2022/03/18 15:10:52;;;;;;;25.55;18.40;;;13.70;73.90;;;;;;4962842;28;20115;-86
2022/03/18 15:13:19;;;;;;;23.75;16.73;;;13.50;73.10;;;;;;4977139;28;20054;-86
2022/03/18 15:15:48;;;;;;;25.02;16.77;;;13.30;72.90;;;;;;4958945;28;20149;-86
2022/03/18 15:18:16;;;;;;;23.42;16.67;;;13.50;72.40;;;;;;4959001;28;20085;-84
2022/03/18 15:20:43;;;;;;;21.92;16.25;;;13.40;72.60;;;;;;4973484;28;20507;-83
2022/03/18 15:23:12;;;;;;;24.75;17.67;;;13.60;72.30;;;;;;4974115;28;20051;-85
2022/03/18 15:25:39;;;;;;;22.83;16.45;;;13.50;72.60;;;;;;4973915;28;20480;-87
2022/03/18 15:28:07;;;;;;;25.02;16.98;;;13.60;72.10;;;;;;4976005;28;20378;-87
2022/03/18 15:30:34;;;;;;;22.92;16.20;;;13.50;72.40;;;;;;4974577;28;20039;-89
2022/03/18 15:33:03;;;;;;;23.08;16.73;;;13.50;72.50;;;;;;4975563;28;20526;-88
2022/03/18 15:35:31;;;;;;;22.08;15.15;;;13.30;73.10;;;;;;4974356;28;20050;-84
2022/03/18 15:37:58;;;;;;;23.67;16.15;;;13.50;73.60;;;;;;4972864;28;20082;-86
2022/03/18 15:40:27;;;;;;;23.10;15.00;;;13.30;74.10;;;;;;4971497;28;20429;-86
2022/03/18 15:42:54;;;;;;;21.52;15.70;;;13.30;75.40;;;;;;4974947;28;20054;-88
2022/03/18 15:45:22;;;;;;;20.00;14.05;;;13.20;76.80;;;;;;4975111;28;20110;-85
2022/03/18 15:47:50;;;;;;;24.45;16.27;;;13.30;78.00;;;;;;4973894;28;20109;-87
2022/03/18 15:50:22;;;;;;;22.48;14.98;;;12.90;79.90;;;;;;4956433;29;20059;-88
2022/03/18 15:52:52;;;;;;;24.45;15.70;;;12.90;82.10;;;;;;4941852;29;20497;-88
2022/03/18 15:55:20;;;;;;;23.75;16.80;;;13.00;82.30;;;;;;4955855;29;20054;-85
2022/03/18 15:57:48;;;;;;;27.08;18.10;;;13.00;82.00;;;;;;4955962;29;20142;-87
2022/03/18 16:00:17;;;;;;;26.08;18.23;;;12.50;84.20;;;;;;4956000;29;20050;-86
2022/03/18 16:02:59;;;;;;;25.85;17.55;;;12.20;86.60;;;;;;4955691;28;20544;-88
2022/03/18 16:05:28;;;;;;;24.67;17.60;;;12.20;87.70;;;;;;4950044;29;20102;-87
2022/03/18 16:07:55;;;;;;;25.75;18.05;;;12.30;88.90;;;;;;4954660;29;20670;-89
2022/03/18 16:10:22;;;;;;;24.83;17.40;;;12.30;88.80;;;;;;4953944;29;20074;-89
2022/03/18 16:12:49;;;;;;;24.02;17.42;;;12.30;89.50;;;;;;4954645;28;20082;-89
2022/03/18 16:15:16;;;;;;;27.10;18.58;;;12.40;89.30;;;;;;4954202;29;20047;-87
2022/03/18 16:17:44;;;;;;;29.02;19.80;;;12.20;89.80;;;;;;4954504;29;20553;-88
2022/03/18 16:20:13;;;;;;;27.52;18.75;;;12.00;90.70;;;;;;4954254;29;20050;-87
2022/03/18 16:22:42;;;;;;;27.95;19.17;;;12.00;90.70;;;;;;4954982;28;20074;-86
2022/03/18 16:25:12;;;;;;;24.65;17.15;;;11.80;91.10;;;;;;4954586;29;20142;-87
2022/03/18 16:27:40;;;;;;;28.10;19.38;;;12.00;91.40;;;;;;4954856;29;20047;-89
2022/03/18 16:30:10;;;;;;;23.60;16.52;;;11.90;91.00;;;;;;4956547;29;20047;-87
2022/03/18 16:32:39;;;;;;;23.23;16.33;;;12.00;91.20;;;;;;4955589;28;20043;-87
2022/03/18 16:35:08;;;;;;;26.52;18.25;;;12.00;91.20;;;;;;4953958;29;20051;-87
2022/03/18 16:37:35;;;;;;;26.55;18.17;;;11.90;91.30;;;;;;4952691;28;20079;-86
2022/03/18 16:40:05;;;;;;;26.83;18.17;;;11.90;91.30;;;;;;4952695;28;20047;-86
2022/03/18 16:42:33;;;;;;;27.77;18.65;;;11.90;91.30;;;;;;4955310;28;20146;-87
2022/03/18 16:45:00;;;;;;;29.40;19.17;;;11.80;91.60;;;;;;4954751;28;20138;-89
2022/03/18 16:50:14;;;;;;;26.33;18.30;;;11.60;91.70;;;;;;4951779;28;20074;-86
2022/03/18 16:52:41;;;;;;;27.33;18.95;;;11.70;91.90;;;;;;4974830;28;20153;-88
2022/03/18 16:55:10;;;;;;;27.35;19.38;;;11.60;91.60;;;;;;4973391;28;20056;-87
2022/03/18 16:57:38;;;;;;;28.20;19.50;;;11.50;91.80;;;;;;4973232;28;20134;-86
2022/03/18 17:00:10;;;;;;;28.42;20.13;;;11.50;91.50;;;;;;4956795;28;20129;-87
2022/03/18 17:02:37;;;;;;;27.55;19.65;;;11.40;91.30;;;;;;4973700;28;20047;-87
2022/03/18 17:05:05;;;;;;;31.40;20.25;;;11.40;91.20;;;;;;4958797;28;20134;-84
2022/03/18 17:07:33;;;;;;;29.35;19.65;;;11.30;91.30;;;;;;4985632;28;20057;-86
2022/03/18 17:10:00;;;;;;;26.98;19.00;;;11.30;91.40;;;;;;4977952;28;20085;-84
2022/03/18 17:12:28;;;;;;;28.40;19.10;;;11.30;91.40;;;;;;4973726;28;20555;-88
2022/03/18 17:14:57;;;;;;;27.00;18.40;;;11.20;91.50;;;;;;4973065;28;20150;-83
2022/03/18 17:17:28;;;;;;;26.70;19.08;;;11.20;91.70;;;;;;4972499;28;20474;-88
2022/03/18 17:19:55;;;;;;;30.95;20.27;;;11.20;92.20;;;;;;4973132;28;20489;-88
2022/03/18 17:22:23;;;;;;;26.52;18.33;;;11.00;93.10;;;;;;4974390;28;20494;-85
2022/03/18 17:24:50;;;;;;;28.48;18.65;;;10.90;94.20;;;;;;4973085;28;20069;-85
2022/03/18 17:27:18;;;;;;;27.52;18.33;;;10.80;94.70;;;;;;4955161;28;20133;-86
2022/03/18 17:29:46;;;;;;;26.85;18.15;;;10.80;95.40;;;;;;4955279;28;20049;-86
2022/03/18 17:32:14;;;;;;;27.42;18.65;;;10.80;95.80;;;;;;4972328;28;20047;-85
2022/03/18 17:34:42;;;;;;;28.10;18.95;;;10.70;96.10;;;;;;4973075;28;20146;-87
2022/03/18 17:37:11;;;;;;;28.85;18.40;;;10.60;96.40;;;;;;4966103;28;20153;-87
2022/03/18 17:39:38;;;;;;;27.85;19.25;;;10.60;96.70;;;;;;4963001;28;20079;-89
2022/03/18 17:42:06;;;;;;;30.67;19.23;;;10.50;97.00;;;;;;4962843;28;20074;-88
2022/03/18 17:44:33;;;;;;;28.05;18.85;;;10.50;97.20;;;;;;4939506;29;20055;-91
2022/03/18 17:47:03;;;;;;;30.02;19.67;;;10.50;97.40;;;;;;4968332;28;20455;-91
2022/03/18 17:49:31;;;;;;;31.40;20.42;;;10.40;97.60;;;;;;4974297;28;20062;-91
2022/03/18 17:52:00;;;;;;;30.15;19.95;;;10.30;97.80;;;;;;4975141;28;20066;-89
2022/03/18 17:54:27;;;;;;;30.23;19.35;;;10.30;97.90;;;;;;4957403;28;20066;-87
2022/03/18 17:56:54;;;;;;;28.90;19.23;;;10.30;97.90;;;;;;4957681;28;20129;-89
2022/03/18 17:59:22;;;;;;;30.92;20.02;;;10.30;98.20;;;;;;4956539;29;20091;-93